Time;durP1;ratioP1;P1;durP2;ratioP2;P2;SDS_P1;SDS_P2;PMS_P1;PMS_P2;Temp;Humidity;BMP_temperature;BMP_pressure;BME280_temperature;BME280_humidity;BME280_pressure;Samples;Min_cycle;Max_cycle;Signal;HPM_P1;HPM_P2
2023/03/01 00:01:24;;;;;;;16.83;12.33;;;;;;;3.06;51.06;99562.38;7000388;28;20262;-79
2023/03/01 00:04:47;;;;;;;18.73;12.47;;;;;;;2.54;50.71;99538.81;6999973;28;20650;-79
2023/03/01 00:08:08;;;;;;;18.73;12.83;;;;;;;3.10;51.10;99583.31;6998213;28;20274;-79
2023/03/01 00:11:32;;;;;;;17.40;12.27;;;;;;;3.05;50.53;99568.69;7000075;28;20608;-79
2023/03/01 00:14:56;;;;;;;16.10;11.47;;;;;;;3.06;50.83;99584.56;6999854;28;20202;-78
2023/03/01 00:18:17;;;;;;;17.17;11.33;;;;;;;2.86;51.32;99577.53;6999197;28;20274;-78
2023/03/01 00:21:38;;;;;;;16.80;11.87;;;;;;;2.36;52.37;99573.19;6999392;28;20205;-79
2023/03/01 00:25:00;;;;;;;17.77;12.77;;;;;;;2.65;52.11;99573.31;6999785;28;20263;-78
2023/03/01 00:28:23;;;;;;;16.27;12.60;;;;;;;2.89;52.04;99584.41;6999053;28;20230;-78
2023/03/01 00:31:44;;;;;;;17.67;12.43;;;;;;;2.82;51.89;99577.94;6999727;28;20231;-79
2023/03/01 00:35:06;;;;;;;17.53;12.67;;;;;;;2.35;52.68;99544.06;6999164;28;20212;-78
2023/03/01 00:38:28;;;;;;;18.00;13.67;;;;;;;2.04;53.48;99571.66;6998743;28;20700;-78
2023/03/01 00:41:49;;;;;;;16.93;12.77;;;;;;;2.41;53.16;99578.97;6998614;28;20202;-78
2023/03/01 00:45:13;;;;;;;18.50;12.57;;;;;;;2.52;53.03;99557.56;6998375;28;20286;-78
2023/03/01 00:48:35;;;;;;;20.00;12.30;;;;;;;2.80;52.90;99580.75;6998306;28;20885;-78
2023/03/01 00:51:56;;;;;;;17.00;11.13;;;;;;;2.86;52.38;99558.91;6999073;28;20282;-78
2023/03/01 00:55:18;;;;;;;20.87;13.57;;;;;;;2.28;51.78;99573.03;6998602;28;20205;-79
2023/03/01 00:58:40;;;;;;;20.70;12.83;;;;;;;2.24;53.96;99581.44;6998367;28;20222;-78
2023/03/01 01:02:03;;;;;;;17.87;12.23;;;;;;;2.70;53.04;99558.59;6993257;28;20332;-79
2023/03/01 01:05:24;;;;;;;18.07;12.67;;;;;;;2.27;53.57;99560.72;6998514;28;20239;-78
2023/03/01 01:08:46;;;;;;;19.20;13.23;;;;;;;2.58;52.38;99569.47;6998158;28;20320;-78
2023/03/01 01:12:08;;;;;;;18.53;11.93;;;;;;;2.58;52.51;99575.66;6998312;28;20852;-78
2023/03/01 01:15:29;;;;;;;16.70;12.43;;;;;;;2.37;52.87;99566.06;6997954;28;20316;-78
2023/03/01 01:18:52;;;;;;;20.17;12.33;;;;;;;2.05;53.11;99501.53;6997835;28;20226;-78
2023/03/01 01:22:14;;;;;;;17.57;12.47;;;;;;;2.49;52.68;99565.81;6999185;28;20270;-78
2023/03/01 01:25:37;;;;;;;19.73;13.63;;;;;;;2.45;52.58;99564.41;7001114;28;20265;-79
2023/03/01 01:29:00;;;;;;;19.20;12.73;;;;;;;2.52;52.80;99548.72;7000544;28;20591;-79
2023/03/01 01:32:21;;;;;;;17.87;13.47;;;;;;;2.26;52.95;99548.38;7001350;28;20253;-78
2023/03/01 01:35:46;;;;;;;19.47;13.57;;;;;;;2.34;52.14;99510.44;7001062;28;20570;-79
2023/03/01 01:39:12;;;;;;;19.43;13.47;;;;;;;2.58;52.70;99543.72;7000963;28;20367;-78
2023/03/01 01:42:34;;;;;;;19.37;13.07;;;;;;;2.79;51.92;99543.59;7000148;28;20185;-78
2023/03/01 01:45:57;;;;;;;19.13;13.20;;;;;;;2.86;51.64;99528.75;6997140;28;20274;-78
2023/03/01 01:49:25;;;;;;;20.80;13.40;;;;;;;2.66;52.97;99532.38;6997505;28;20274;-78
2023/03/01 01:52:49;;;;;;;19.10;14.80;;;;;;;2.87;52.07;99525.94;6998252;28;20221;-78
2023/03/01 01:56:12;;;;;;;18.10;12.60;;;;;;;2.53;52.56;99523.78;6996797;28;20209;-78
2023/03/01 01:59:34;;;;;;;19.10;13.50;;;;;;;2.72;52.35;99530.00;6996815;28;20299;-79
2023/03/01 02:02:57;;;;;;;18.97;12.50;;;;;;;2.48;52.71;99529.53;6997848;28;20201;-79
2023/03/01 02:06:23;;;;;;;18.60;12.53;;;;;;;2.70;53.34;99520.47;6996942;28;20724;-78
2023/03/01 02:09:48;;;;;;;18.47;13.63;;;;;;;2.96;52.66;99518.94;6996963;28;20256;-78
2023/03/01 02:13:10;;;;;;;16.43;11.63;;;;;;;3.06;51.96;99501.97;6997713;28;20765;-78
2023/03/01 02:16:32;;;;;;;19.70;12.87;;;;;;;3.02;51.80;99483.75;6995360;28;20261;-78
2023/03/01 02:20:06;;;;;;;16.97;11.77;;;;;;;3.20;52.29;99490.88;6996912;28;20360;-78
2023/03/01 02:23:28;;;;;;;17.07;12.53;;;;;;;2.79;52.57;99456.56;6997707;28;20595;-79
2023/03/01 02:26:53;;;;;;;20.03;13.37;;;;;;;3.30;51.52;99489.03;6996654;28;20207;-78
2023/03/01 02:30:16;;;;;;;18.07;12.70;;;;;;;3.22;52.42;99488.94;6997021;28;20823;-79
2023/03/01 02:33:39;;;;;;;20.33;13.33;;;;;;;3.51;52.03;99478.19;6996819;28;20294;-78
2023/03/01 02:37:04;;;;;;;18.23;14.07;;;;;;;3.46;52.54;99473.31;6996799;28;20214;-79
2023/03/01 02:40:25;;;;;;;20.90;14.67;;;;;;;3.94;51.29;99476.63;6998802;28;20226;-79
2023/03/01 02:43:47;;;;;;;22.43;14.70;;;;;;;4.40;49.89;99440.97;6996383;28;20208;-79
2023/03/01 02:47:10;;;;;;;20.30;14.17;;;;;;;4.72;48.74;99476.03;6996533;28;20261;-78
2023/03/01 02:50:52;;;;;;;21.70;15.07;;;;;;;4.46;49.69;99459.91;6997566;28;20313;-79
2023/03/01 02:54:21;;;;;;;21.47;13.03;;;;;;;4.90;48.46;99461.66;6997543;28;20808;-78
2023/03/01 02:57:44;;;;;;;19.87;13.50;;;;;;;4.64;48.70;99449.22;6997671;28;20194;-79
2023/03/01 03:01:06;;;;;;;21.10;14.87;;;;;;;4.55;49.25;99450.16;6997292;28;20252;-79
2023/03/01 03:04:29;;;;;;;19.83;14.63;;;;;;;4.57;48.96;99442.81;6973302;28;20237;-79
2023/03/01 03:07:51;;;;;;;23.23;16.10;;;;;;;4.32;50.09;99456.91;6968130;28;20742;-79
2023/03/01 03:11:12;;;;;;;21.23;14.43;;;;;;;4.53;49.87;99442.28;6972179;28;20236;-79
2023/03/01 03:14:36;;;;;;;21.53;14.57;;;;;;;4.68;49.36;99424.75;6974181;28;20227;-79
2023/03/01 03:17:59;;;;;;;19.90;14.57;;;;;;;4.75;49.68;99432.97;6973814;28;20296;-79
2023/03/01 03:21:22;;;;;;;20.97;14.70;;;;;;;4.51;50.10;99432.75;6974087;28;20207;-79
2023/03/01 03:24:43;;;;;;;20.43;14.63;;;;;;;4.30;50.36;99429.56;6973548;28;20260;-79
2023/03/01 03:28:09;;;;;;;21.07;13.27;;;;;;;4.59;50.36;99420.31;6973548;28;20227;-79
2023/03/01 03:31:30;;;;;;;22.07;15.87;;;;;;;4.52;50.57;99421.94;6973695;28;20196;-79
2023/03/01 03:34:52;;;;;;;21.63;14.80;;;;;;;4.56;50.48;99422.47;6973417;28;20230;-79
2023/03/01 03:38:16;;;;;;;18.77;13.73;;;;;;;4.78;49.66;99432.69;6973096;28;20771;-79
2023/03/01 03:41:38;;;;;;;24.90;16.03;;;;;;;4.72;49.05;99401.25;6973676;28;20207;-78
2023/03/01 03:44:59;;;;;;;20.80;14.63;;;;;;;4.37;49.78;99431.44;6973215;28;20250;-78
2023/03/01 03:48:21;;;;;;;21.00;15.37;;;;;;;4.84;48.75;99424.88;7002295;28;20660;-79
2023/03/01 03:51:43;;;;;;;23.20;15.30;;;;;;;5.35;47.92;99416.94;7011819;28;20296;-79
2023/03/01 03:55:10;;;;;;;20.90;15.00;;;;;;;5.53;47.33;99411.50;7015506;28;20315;-79
2023/03/01 03:58:32;;;;;;;23.83;15.20;;;;;;;5.32;47.56;99403.84;7004679;28;20584;-78
2023/03/01 04:01:53;;;;;;;24.47;16.20;;;;;;;4.82;47.99;99333.38;7001336;28;20320;-78
2023/03/01 04:05:17;;;;;;;24.77;15.07;;;;;;;5.81;46.76;99408.53;7001506;28;20293;-78
2023/03/01 04:08:39;;;;;;;25.97;15.70;;;;;;;5.73;46.79;99391.56;7001024;28;20256;-79
2023/03/01 04:12:02;;;;;;;23.27;16.57;;;;;;;5.72;47.21;99398.75;7001620;28;20207;-78
2023/03/01 04:15:24;;;;;;;22.40;16.40;;;;;;;5.54;47.22;99389.13;7001408;28;20639;-79
2023/03/01 04:18:46;;;;;;;21.53;14.47;;;;;;;5.54;47.22;99397.16;7000209;28;20305;-78
2023/03/01 04:22:09;;;;;;;22.43;15.37;;;;;;;5.55;46.83;99391.63;7000709;28;20622;-78
2023/03/01 04:25:30;;;;;;;21.77;14.80;;;;;;;5.92;46.30;99383.31;7001142;28;20205;-79
2023/03/01 04:28:53;;;;;;;22.30;15.77;;;;;;;5.91;46.16;99395.03;6999817;28;20720;-79
2023/03/01 04:32:16;;;;;;;22.50;15.50;;;;;;;5.97;46.27;99394.38;7000344;28;20210;-78
2023/03/01 04:35:38;;;;;;;25.97;16.50;;;;;;;5.48;47.96;99403.16;6999979;28;20425;-79
2023/03/01 04:39:11;;;;;;;22.20;15.50;;;;;;;5.49;47.98;99396.78;7001980;28;20288;-80
2023/03/01 04:42:33;;;;;;;20.87;16.27;;;;;;;5.35;47.99;99379.50;6998773;28;20185;-79
2023/03/01 04:46:02;;;;;;;21.80;15.47;;;;;;;5.65;47.24;99403.06;6998767;28;20299;-79
2023/03/01 04:49:25;;;;;;;23.60;15.00;;;;;;;5.42;47.68;99401.09;6999330;28;20279;-78
2023/03/01 04:52:47;;;;;;;22.77;15.40;;;;;;;5.51;47.32;99392.13;6999267;28;20242;-79
2023/03/01 04:56:09;;;;;;;24.53;15.83;;;;;;;5.14;47.34;99346.13;6998696;28;20659;-78
2023/03/01 04:59:30;;;;;;;21.97;15.23;;;;;;;5.92;46.40;99400.22;6999132;28;20895;-78
2023/03/01 05:02:55;;;;;;;25.80;16.57;;;;;;;6.04;45.83;99377.50;6991449;28;20254;-79
2023/03/01 05:06:20;;;;;;;21.63;14.73;;;;;;;5.62;47.03;99399.88;6970200;28;20295;-79
2023/03/01 05:09:42;;;;;;;23.13;16.03;;;;;;;5.88;46.46;99393.50;6971061;28;20217;-79
2023/03/01 05:13:04;;;;;;;23.13;15.80;;;;;;;5.89;46.61;99389.81;6970051;28;20216;-79
2023/03/01 05:16:26;;;;;;;21.70;15.90;;;;;;;5.90;46.66;99383.47;6975119;28;20605;-79
2023/03/01 05:19:49;;;;;;;23.67;15.67;;;;;;;5.81;46.46;99384.44;6997427;28;20231;-79
2023/03/01 05:23:10;;;;;;;23.40;16.50;;;;;;;5.52;46.76;99341.16;6998001;28;20273;-79
2023/03/01 05:26:32;;;;;;;23.03;15.60;;;;;;;5.27;47.58;99387.47;6998166;28;20286;-82
2023/03/01 05:29:53;;;;;;;24.37;15.63;;;;;;;6.06;46.29;99380.00;6990441;28;20220;-79
2023/03/01 05:33:15;;;;;;;24.80;15.83;;;;;;;6.12;46.23;99376.66;6983462;28;20392;-78
2023/03/01 05:36:40;;;;;;;20.50;15.67;;;;;;;5.99;46.99;99376.31;6967270;28;20304;-79
2023/03/01 05:40:02;;;;;;;24.10;15.83;;;;;;;6.04;47.48;99390.03;6991795;28;20831;-80
2023/03/01 05:43:24;;;;;;;25.13;16.63;;;;;;;5.81;47.25;99396.97;6997765;28;20724;-78
2023/03/01 05:46:46;;;;;;;21.40;14.97;;;;;;;5.96;47.15;99382.00;6999520;28;20297;-78
2023/03/01 05:50:08;;;;;;;21.87;14.67;;;;;;;6.17;46.56;99371.66;7000486;28;20442;-79
2023/03/01 05:53:31;;;;;;;22.37;15.17;;;;;;;6.08;46.46;99386.88;6998729;28;20713;-78
2023/03/01 05:56:52;;;;;;;25.63;16.40;;;;;;;6.18;45.69;99368.84;6996773;28;20260;-78
2023/03/01 06:00:16;;;;;;;22.47;15.03;;;;;;;5.87;45.52;99341.00;6997012;28;20309;-78
2023/03/01 06:03:37;;;;;;;26.03;16.00;;;;;;;6.22;45.81;99356.81;6997384;28;20336;-78
2023/03/01 06:06:59;;;;;;;21.07;16.33;;;;;;;6.09;46.14;99363.63;6997369;28;20287;-79
2023/03/01 06:10:23;;;;;;;23.00;15.87;;;;;;;5.84;46.82;99362.72;6992661;28;20269;-79
2023/03/01 06:13:44;;;;;;;23.60;16.20;;;;;;;6.08;46.58;99368.13;6989564;28;20625;-79
2023/03/01 06:17:06;;;;;;;21.87;15.83;;;;;;;5.72;46.65;99350.59;6974343;28;20232;-79
2023/03/01 06:20:29;;;;;;;26.70;16.20;;;;;;;5.98;46.79;99364.78;6978653;28;20218;-79
2023/03/01 06:23:51;;;;;;;21.10;14.83;;;;;;;6.14;46.46;99378.19;6996667;28;20799;-80
2023/03/01 06:27:17;;;;;;;24.67;15.90;;;;;;;6.18;46.27;99371.50;6996125;28;20554;-80
2023/03/01 06:30:39;;;;;;;22.43;15.37;;;;;;;6.41;45.75;99374.41;6996130;28;20765;-79
2023/03/01 06:34:00;;;;;;;24.87;16.23;;;;;;;6.05;46.55;99372.97;6997271;28;20227;-78
2023/03/01 06:37:22;;;;;;;23.00;16.50;;;;;;;5.99;46.40;99376.31;6998720;28;20295;-78
2023/03/01 06:40:43;;;;;;;20.87;15.30;;;;;;;5.59;46.57;99381.44;6997429;28;20233;-79
2023/03/01 06:44:06;;;;;;;23.10;15.33;;;;;;;5.77;46.39;99379.56;6995097;28;20678;-79
2023/03/01 06:47:28;;;;;;;22.13;15.57;;;;;;;5.35;47.28;99382.19;6994832;28;20224;-78
2023/03/01 06:50:49;;;;;;;23.33;15.13;;;;;;;4.96;48.36;99372.06;6986749;28;20224;-80
2023/03/01 06:54:11;;;;;;;25.07;16.90;;;;;;;5.14;48.14;99372.84;6968837;28;20704;-78
2023/03/01 06:57:32;;;;;;;24.87;15.97;;;;;;;5.01;48.13;99372.44;6976524;28;20295;-79
2023/03/01 07:00:55;;;;;;;25.53;16.13;;;;;;;5.21;47.86;99350.69;6994169;28;20341;-79
2023/03/01 07:04:17;;;;;;;23.03;15.40;;;;;;;4.98;48.68;99378.06;6998493;28;20239;-78
2023/03/01 07:07:38;;;;;;;22.43;15.53;;;;;;;5.41;47.68;99373.53;6992765;28;20294;-78
2023/03/01 07:11:01;;;;;;;22.13;14.70;;;;;;;6.35;45.96;99370.56;6999098;28;20299;-79
2023/03/01 07:14:24;;;;;;;22.43;15.33;;;;;;;6.55;45.05;99371.91;6998927;28;20231;-79
2023/03/01 07:17:49;;;;;;;23.47;16.40;;;;;;;6.78;44.02;99370.25;6997672;28;20603;-79
2023/03/01 07:21:13;;;;;;;22.10;15.97;;;;;;;7.24;43.45;99366.03;6997095;28;20195;-79
2023/03/01 07:24:35;;;;;;;21.50;16.57;;;;;;;7.49;42.82;99362.28;6997021;28;20208;-80
2023/03/01 07:27:56;;;;;;;24.20;16.03;;;;;;;6.88;42.83;99357.53;6967392;28;20801;-79
2023/03/01 07:31:18;;;;;;;21.07;15.30;;;;;;;6.71;43.79;99353.16;6968826;28;20260;-79
2023/03/01 07:34:41;;;;;;;22.40;16.33;;;;;;;6.19;44.57;99350.94;6979475;28;20236;-79
2023/03/01 07:38:02;;;;;;;25.70;16.33;;;;;;;8.03;41.90;99346.13;6997517;28;20353;-79
2023/03/01 07:41:23;;;;;;;20.10;16.00;;;;;;;8.29;41.12;99332.38;6998979;28;20282;-79
2023/03/01 07:44:45;;;;;;;23.13;16.13;;;;;;;8.44;41.07;99331.44;6990601;28;20216;-80
2023/03/01 07:48:06;;;;;;;23.47;16.37;;;;;;;8.81;38.39;99327.97;6997192;28;20378;-80
2023/03/01 07:51:29;;;;;;;21.23;15.53;;;;;;;8.28;39.61;99336.94;6996324;28;20209;-79
2023/03/01 07:54:51;;;;;;;24.77;16.83;;;;;;;7.98;40.35;99305.53;6995506;28;20268;-79
2023/03/01 07:58:12;;;;;;;20.53;14.93;;;;;;;8.26;39.61;99330.06;7000669;28;20642;-79
2023/03/01 08:01:34;;;;;;;19.63;15.60;;;;;;;6.71;43.85;99330.91;7002432;28;20254;-79
2023/03/01 08:04:55;;;;;;;24.87;16.10;;;;;;;7.79;41.07;99315.88;7003001;28;20642;-79
2023/03/01 08:08:18;;;;;;;22.73;16.37;;;;;;;7.66;40.69;99315.59;7000895;28;20232;-79
2023/03/01 08:11:40;;;;;;;21.30;14.90;;;;;;;8.11;40.74;99315.69;7001646;28;20205;-79
2023/03/01 08:15:01;;;;;;;23.20;15.97;;;;;;;8.03;39.91;99288.91;7004298;28;20316;-80
2023/03/01 08:18:23;;;;;;;19.53;15.30;;;;;;;8.67;38.77;99312.66;6979976;28;20222;-80
2023/03/01 08:21:44;;;;;;;20.73;16.07;;;;;;;8.04;40.12;99326.31;6974438;28;20273;-80
2023/03/01 08:25:08;;;;;;;24.43;17.10;;;;;;;8.12;40.19;99302.09;6975636;28;20651;-80
2023/03/01 08:28:29;;;;;;;23.60;16.37;;;;;;;9.67;37.88;99311.91;6973504;28;20376;-80
2023/03/01 08:31:51;;;;;;;22.47;15.07;;;;;;;9.41;37.25;99318.78;7001151;28;20297;-80
2023/03/01 08:35:12;;;;;;;20.50;15.07;;;;;;;7.80;40.35;99321.06;7001318;28;20363;-79
2023/03/01 08:38:34;;;;;;;22.43;16.00;;;;;;;7.85;40.73;99321.34;6999251;28;20264;-79
2023/03/01 08:41:57;;;;;;;21.87;15.60;;;;;;;7.69;41.11;99316.09;6998626;28;20206;-80
2023/03/01 08:45:19;;;;;;;22.30;15.93;;;;;;;9.40;38.48;99301.81;7001511;28;20297;-79
2023/03/01 08:48:42;;;;;;;19.77;14.90;;;;;;;8.53;38.66;99316.09;7000122;28;20227;-79
2023/03/01 08:52:04;;;;;;;21.90;15.93;;;;;;;9.36;37.97;99273.63;7000130;28;20241;-80
2023/03/01 08:55:25;;;;;;;20.37;15.53;;;;;;;10.15;36.00;99297.00;6976609;28;20218;-79
2023/03/01 08:58:49;;;;;;;23.93;15.23;;;;;;;8.11;40.70;99297.75;6975053;28;20368;-79
2023/03/01 09:02:13;;;;;;;22.33;15.97;;;;;;;9.32;37.65;99295.66;7000626;28;20283;-78
2023/03/01 09:05:36;;;;;;;20.07;15.70;;;;;;;10.54;35.79;99270.44;6999407;28;20226;-82
2023/03/01 09:08:58;;;;;;;19.27;14.53;;;;;;;11.15;34.50;99281.31;6996057;28;20214;-82
2023/03/01 09:12:19;;;;;;;28.00;21.17;;;;;;;11.53;33.54;99276.38;7000212;28;20209;-81
2023/03/01 09:15:42;;;;;;;18.90;14.73;;;;;;;10.70;36.35;99265.59;6993401;28;20703;-79
2023/03/01 09:19:04;;;;;;;19.23;15.17;;;;;;;9.64;36.11;99247.66;6974169;28;20834;-83
2023/03/01 09:22:26;;;;;;;22.23;16.77;;;;;;;9.56;36.53;99188.56;6973899;28;20781;-81
2023/03/01 09:25:47;;;;;;;21.13;15.80;;;;;;;10.62;34.39;99254.97;6972885;28;20337;-83
2023/03/01 09:29:09;;;;;;;23.70;16.27;;;;;;;10.14;35.70;99262.97;6975459;28;20363;-83
2023/03/01 09:32:32;;;;;;;19.97;15.53;;;;;;;10.69;33.60;99169.56;6985360;28;20207;-82
2023/03/01 09:35:57;;;;;;;19.73;15.60;;;;;;;10.55;34.84;99243.28;7001290;28;20316;-80
2023/03/01 09:39:20;;;;;;;21.50;15.73;;;;;;;10.45;34.55;99233.88;6975848;28;20246;-81
2023/03/01 09:42:47;;;;;;;21.57;16.13;;;;;;;9.99;35.98;99211.00;6997960;28;20201;-81
2023/03/01 09:46:11;;;;;;;20.07;16.40;;;;;;;9.44;35.33;99136.25;7002834;28;20741;-80
2023/03/01 09:49:36;;;;;;;19.63;16.00;;;;;;;9.35;35.99;99241.50;6999594;28;20222;-81
2023/03/01 09:53:02;;;;;;;19.03;14.63;;;;;;;9.38;37.35;99241.09;6987827;28;20221;-80
2023/03/01 09:56:31;;;;;;;25.13;16.27;;;;;;;9.47;36.74;99221.16;6993240;28;20214;-81
2023/03/01 10:00:08;;;;;;;24.13;16.90;;;;;;;11.50;33.84;99220.88;6996340;28;20776;-81
2023/03/01 10:03:36;;;;;;;19.23;14.43;;;;;;;11.52;33.25;99191.00;6972479;28;20194;-81
2023/03/01 10:07:08;;;;;;;21.27;15.37;;;;;;;11.39;33.66;99209.84;6998920;28;20227;-81
2023/03/01 10:10:33;;;;;;;21.73;15.63;;;;;;;11.07;34.54;99211.31;7005637;28;20257;-82
2023/03/01 10:14:02;;;;;;;18.37;14.63;;;;;;;10.46;34.53;99178.94;7003620;28;20209;-81
2023/03/01 10:17:28;;;;;;;18.50;14.63;;;;;;;10.66;34.94;99196.09;6995227;28;20371;-81
2023/03/01 10:20:53;;;;;;;18.83;14.47;;;;;;;11.09;33.88;99163.38;6974078;28;20324;-81
2023/03/01 10:24:19;;;;;;;20.97;16.33;;;;;;;10.38;33.72;99074.78;6986078;28;20343;-81
2023/03/01 10:27:46;;;;;;;20.00;14.93;;;;;;;11.07;34.17;99143.03;6976277;28;20197;-82
2023/03/01 10:31:12;;;;;;;18.20;13.90;;;;;;;10.74;34.48;99080.00;6985429;28;20251;-80
2023/03/01 10:34:35;;;;;;;20.20;16.10;;;;;;;9.03;36.25;99120.88;6994614;28;20738;-80
2023/03/01 10:37:58;;;;;;;17.50;14.40;;;;;;;9.88;36.94;99171.09;6973592;28;20289;-81
2023/03/01 10:41:23;;;;;;;21.17;14.63;;;;;;;10.90;35.13;99163.25;6972899;28;20274;-84
2023/03/01 10:44:47;;;;;;;20.70;14.63;;;;;;;11.76;33.87;99149.97;6970687;28;20221;-80
2023/03/01 10:48:14;;;;;;;19.17;14.10;;;;;;;12.31;33.01;99163.13;6971960;28;20279;-80
2023/03/01 10:51:35;;;;;;;17.40;14.23;;;;;;;10.75;34.78;99168.75;6984898;28;20213;-80
2023/03/01 10:54:59;;;;;;;18.73;15.07;;;;;;;10.92;33.58;99134.25;6999378;28;20226;-80
2023/03/01 10:58:23;;;;;;;21.07;15.07;;;;;;;10.46;34.87;99142.00;6999034;28;20379;-80
2023/03/01 11:01:44;;;;;;;18.47;14.10;;;;;;;12.23;32.95;99152.53;6998472;28;20686;-80
2023/03/01 11:05:19;;;;;;;20.60;14.90;;;;;;;12.05;33.08;99136.91;6999430;28;20205;-80
2023/03/01 11:08:43;;;;;;;18.83;14.13;;;;;;;12.42;32.62;99119.25;6995588;28;20886;-80
2023/03/01 11:12:06;;;;;;;18.97;14.87;;;;;;;12.54;32.12;99117.56;6993563;28;20294;-79
2023/03/01 11:15:30;;;;;;;18.80;14.17;;;;;;;13.46;30.43;99110.88;6973469;28;20222;-81
2023/03/01 11:18:58;;;;;;;19.47;14.20;;;;;;;12.16;31.71;99084.13;6972662;28;20319;-83
2023/03/01 11:22:21;;;;;;;17.23;14.00;;;;;;;12.14;31.77;99110.50;6973511;28;20260;-80
2023/03/01 11:25:45;;;;;;;16.33;13.43;;;;;;;12.37;31.68;99075.78;6973998;28;20298;-81
2023/03/01 11:29:13;;;;;;;17.17;13.07;;;;;;;13.36;30.92;99091.53;6992214;28;20308;-80
2023/03/01 11:32:39;;;;;;;16.80;13.97;;;;;;;12.14;32.50;99094.28;7005332;28;20243;-80
2023/03/01 11:36:04;;;;;;;19.97;14.33;;;;;;;11.94;32.76;99094.31;6991677;28;20589;-81
2023/03/01 11:39:30;;;;;;;16.83;13.23;;;;;;;12.27;32.73;99084.31;6983320;28;20637;-80
2023/03/01 11:43:00;;;;;;;20.27;14.77;;;;;;;11.90;32.47;99081.41;6990056;28;20190;-80
2023/03/01 11:46:50;;;;;;;16.83;13.20;;;;;;;12.85;31.43;99059.03;6985643;28;20267;-81
2023/03/01 11:50:21;;;;;;;18.37;13.27;;;;;;;11.97;32.43;99068.72;6993581;28;20309;-80
2023/03/01 11:54:00;;;;;;;18.30;14.27;;;;;;;11.47;33.03;99058.47;6995670;28;20246;-81
2023/03/01 11:57:36;;;;;;;17.90;14.83;;;;;;;12.70;32.17;99049.50;6990701;28;20222;-80
2023/03/01 12:01:09;;;;;;;17.63;14.33;;;;;;;13.15;30.81;99048.56;6993212;28;20659;-80
2023/03/01 12:05:01;;;;;;;17.43;13.70;;;;;;;14.05;30.69;99033.53;7005115;28;20282;-80
2023/03/01 12:08:26;;;;;;;19.00;14.03;;;;;;;12.31;32.62;99031.50;7000589;28;20708;-80
2023/03/01 12:11:58;;;;;;;18.90;14.90;;;;;;;11.76;33.62;99037.31;7002295;28;20190;-80
2023/03/01 12:15:40;;;;;;;19.70;14.23;;;;;;;13.78;31.05;99025.84;7003827;28;20282;-80
2023/03/01 12:19:09;;;;;;;16.77;14.33;;;;;;;12.46;32.11;99023.97;7004258;28;20241;-80
2023/03/01 12:22:32;;;;;;;17.10;13.70;;;;;;;12.35;32.47;99010.28;7004764;28;20197;-81
2023/03/01 12:25:59;;;;;;;15.30;12.57;;;;;;;12.75;32.64;99001.81;7003579;28;20215;-79
2023/03/01 12:29:26;;;;;;;16.73;13.20;;;;;;;12.53;32.51;98995.06;7004734;28;20282;-80
2023/03/01 12:32:56;;;;;;;16.03;13.37;;;;;;;12.03;33.37;98995.78;7016928;28;20196;-81
2023/03/01 12:36:42;;;;;;;17.90;13.37;;;;;;;12.68;32.75;98992.91;7022851;28;20230;-83
2023/03/01 12:40:17;;;;;;;16.23;13.93;;;;;;;11.77;33.70;98970.63;7019407;28;20275;-81
2023/03/01 12:43:48;;;;;;;16.93;12.93;;;;;;;12.00;34.19;98981.84;7015561;28;20727;-82
2023/03/01 12:47:23;;;;;;;16.70;14.43;;;;;;;12.02;33.56;98967.09;7022307;28;20288;-81
2023/03/01 12:50:48;;;;;;;16.63;13.03;;;;;;;12.80;33.69;98958.72;7015325;28;20237;-81
2023/03/01 12:54:16;;;;;;;17.57;14.03;;;;;;;14.52;29.98;98956.13;7019982;28;20206;-81
2023/03/01 12:57:40;;;;;;;15.97;12.80;;;;;;;12.75;32.18;98953.13;7007583;28;20210;-80
2023/03/01 13:01:14;;;;;;;16.87;13.00;;;;;;;13.02;31.91;98905.97;7003136;28;20730;-81
2023/03/01 13:04:48;;;;;;;15.43;12.77;;;;;;;13.41;32.14;98943.63;7001910;28;20206;-80
2023/03/01 13:08:16;;;;;;;15.53;12.37;;;;;;;14.44;29.72;98934.72;6999603;28;20363;-81
2023/03/01 13:11:42;;;;;;;15.53;12.80;;;;;;;13.88;30.31;98928.63;7002315;28;20331;-82
2023/03/01 13:15:05;;;;;;;15.47;12.23;;;;;;;13.62;31.83;98929.69;7001717;28;20195;-80
2023/03/01 13:18:34;;;;;;;17.30;12.77;;;;;;;14.03;30.71;98938.06;6994794;28;20222;-81
2023/03/01 13:21:56;;;;;;;14.37;11.53;;;;;;;14.20;30.20;98922.06;7000755;28;20186;-83
2023/03/01 13:25:20;;;;;;;15.37;12.43;;;;;;;15.11;29.13;98920.91;7003693;28;20220;-79
2023/03/01 13:29:00;;;;;;;13.70;11.60;;;;;;;15.39;28.65;98910.28;6997985;28;20359;-78
2023/03/01 13:32:23;;;;;;;15.13;12.70;;;;;;;15.12;29.08;98919.84;6998021;28;20194;-80
2023/03/01 13:35:46;;;;;;;15.07;12.40;;;;;;;14.86;28.73;98909.34;6998502;28;20241;-80
2023/03/01 13:39:28;;;;;;;17.83;12.30;;;;;;;14.43;29.73;98912.19;6997971;28;20223;-79
2023/03/01 13:42:50;;;;;;;14.47;12.27;;;;;;;12.83;31.83;98911.47;6998330;28;20810;-80
2023/03/01 13:46:17;;;;;;;13.93;11.87;;;;;;;14.51;30.21;98895.59;7000118;28;20224;-79
2023/03/01 13:49:43;;;;;;;15.83;12.93;;;;;;;13.34;31.32;98899.47;6998837;28;20365;-80
2023/03/01 13:53:08;;;;;;;16.30;13.63;;;;;;;13.44;31.47;98915.22;6999128;28;20677;-79
2023/03/01 13:56:34;;;;;;;17.93;14.07;;;;;;;13.37;31.37;98903.63;6996793;28;20234;-79
2023/03/01 13:59:56;;;;;;;19.77;13.93;;;;;;;13.00;32.16;98904.53;6998533;28;20234;-79
2023/03/01 14:03:19;;;;;;;15.77;13.87;;;;;;;13.04;31.92;98903.88;6999502;28;20262;-78
2023/03/01 14:06:40;;;;;;;17.87;13.77;;;;;;;13.88;31.11;98882.53;6987142;28;20203;-80
2023/03/01 14:10:05;;;;;;;18.43;13.67;;;;;;;13.40;31.51;98886.94;6992330;28;20322;-80
2023/03/01 14:13:39;;;;;;;18.97;14.20;;;;;;;12.29;31.91;98729.97;6998025;28;20213;-80
2023/03/01 14:17:10;;;;;;;18.43;14.67;;;;;;;13.18;32.15;98907.31;6998990;28;20678;-79
2023/03/01 14:20:35;;;;;;;16.90;13.33;;;;;;;12.68;32.76;98878.47;6992104;28;20706;-81
2023/03/01 14:23:57;;;;;;;17.33;14.50;;;;;;;13.52;31.67;98909.56;6974759;28;20920;-81
2023/03/01 14:27:20;;;;;;;17.53;14.13;;;;;;;12.59;32.98;98912.22;6978153;28;20687;-79
2023/03/01 14:30:43;;;;;;;16.40;14.53;;;;;;;13.52;31.94;98898.72;6987681;28;20404;-79
2023/03/01 14:34:06;;;;;;;16.40;14.37;;;;;;;13.60;31.69;98890.31;6997972;28;20261;-80
2023/03/01 14:37:29;;;;;;;19.30;14.73;;;;;;;12.66;32.69;98888.66;6998108;28;20374;-79
2023/03/01 14:40:52;;;;;;;16.63;13.47;;;;;;;14.09;31.36;98917.38;6983971;28;20233;-79
2023/03/01 14:44:18;;;;;;;16.97;14.93;;;;;;;13.37;31.88;98922.59;6990770;28;20360;-79
2023/03/01 14:47:40;;;;;;;16.83;12.97;;;;;;;13.23;32.20;98927.25;6997033;28;20193;-80
2023/03/01 14:51:01;;;;;;;17.33;13.97;;;;;;;13.23;31.79;98931.88;6997672;28;20206;-79
2023/03/01 14:54:26;;;;;;;17.90;13.80;;;;;;;12.74;33.14;98934.41;6996833;28;20323;-79
2023/03/01 14:57:49;;;;;;;15.77;13.77;;;;;;;12.57;33.16;98927.84;6995421;28;20228;-78
2023/03/01 15:01:14;;;;;;;17.43;12.57;;;;;;;13.73;32.04;98922.69;7001198;28;20325;-78
2023/03/01 15:04:36;;;;;;;17.27;13.57;;;;;;;13.62;31.39;98912.63;6989155;28;20225;-77
2023/03/01 15:07:59;;;;;;;17.90;14.33;;;;;;;11.58;34.32;98920.16;7001182;28;20309;-79
2023/03/01 15:11:24;;;;;;;18.43;13.63;;;;;;;13.45;32.39;98936.69;7002995;28;20296;-81
2023/03/01 15:14:48;;;;;;;17.80;13.97;;;;;;;12.99;32.33;98938.88;7000211;28;20195;-80
2023/03/01 15:18:19;;;;;;;19.70;14.07;;;;;;;13.53;32.22;98930.19;7000586;28;20709;-80
2023/03/01 15:21:45;;;;;;;19.20;14.00;;;;;;;13.13;32.44;98920.69;7002410;28;20185;-80
2023/03/01 15:25:15;;;;;;;19.70;15.20;;;;;;;11.32;35.15;98931.75;7002551;28;20293;-80
2023/03/01 15:28:44;;;;;;;20.93;14.30;;;;;;;12.03;34.11;98935.50;7000546;28;20709;-81
2023/03/01 15:32:09;;;;;;;17.17;14.17;;;;;;;12.47;33.04;98895.00;6995753;28;20196;-80
2023/03/01 15:35:41;;;;;;;19.47;13.77;;;;;;;13.82;31.84;98921.38;7002461;28;20191;-80
2023/03/01 15:39:05;;;;;;;18.20;14.20;;;;;;;14.09;31.33;98923.59;7000299;28;20351;-79
2023/03/01 15:42:39;;;;;;;19.00;13.80;;;;;;;14.10;30.80;98911.69;6990168;28;20700;-80
2023/03/01 15:46:01;;;;;;;17.40;13.83;;;;;;;13.85;31.36;98918.19;6999900;28;20575;-79